Time;durP1;ratioP1;P1;durP2;ratioP2;P2;SDS_P1;SDS_P2;PMS_P1;PMS_P2;Temp;Humidity;BMP_temperature;BMP_pressure;BME280_temperature;BME280_humidity;BME280_pressure;Samples;Min_cycle;Max_cycle;Signal;HPM_P1;HPM_P2
2022/12/17 13:06:34;;;;;;;;;;;0.00;99.90;;;;;;5067286;28;19969;-59
2022/12/17 13:09:24;;;;;;;;;;;0.20;99.90;;;;;;5056272;28;19920;-59
2022/12/17 13:12:08;;;;;;;;;;;0.20;99.90;;;;;;5034941;28;19958;-60
2022/12/17 13:14:49;;;;;;;;;;;0.20;99.90;;;;;;5064997;28;19977;-59
2022/12/17 13:17:14;;;;;;;;;;;0.20;99.90;;;;;;5065566;28;20393;-60
2022/12/17 13:19:41;;;;;;;;;;;0.00;99.90;;;;;;5064727;28;19916;-59
2022/12/17 13:22:09;;;;;;;;;;;-0.10;99.90;;;;;;5064056;28;20243;-59
2022/12/17 13:24:35;;;;;;;;;;;0.00;99.90;;;;;;5064134;28;19920;-55
2022/12/17 13:27:01;;;;;;;;;;;0.00;99.90;;;;;;5069892;28;19917;-59
2022/12/17 13:29:28;;;;;;;;;;;0.00;99.90;;;;;;5070400;28;20401;-60
2022/12/17 13:31:54;;;;;;;;;;;-0.10;99.90;;;;;;5066446;28;19986;-53
2022/12/17 13:34:25;;;;;;;;;;;0.00;99.90;;;;;;5061642;28;20386;-59
2022/12/17 13:36:58;;;;;;;;;;;0.00;99.90;;;;;;5070604;28;19908;-63
2022/12/17 13:39:50;;;;;;;;;;;-0.10;99.90;;;;;;5064297;28;19912;-64
2022/12/17 13:42:17;;;;;;;;;;;-0.20;99.90;;;;;;5069057;28;20533;-61
2022/12/17 13:44:44;;;;;;;;;;;-0.20;99.90;;;;;;5063172;28;19916;-64
2022/12/17 13:47:18;;;;;;;;;;;-0.30;99.90;;;;;;5060969;28;19951;-64
2022/12/17 13:49:49;;;;;;;;;;;-0.30;99.90;;;;;;5056966;28;19943;-63
2022/12/17 13:52:18;;;;;;;;;;;-0.40;99.90;;;;;;5063232;28;19912;-63
2022/12/17 13:54:43;;;;;;;;;;;-0.30;99.90;;;;;;5058305;28;20298;-64
2022/12/17 13:57:12;;;;;;;;;;;-0.20;99.90;;;;;;5061095;28;19908;-64
2022/12/17 13:59:37;;;;;;;;;;;-0.20;99.90;;;;;;5058579;28;19916;-63
2022/12/17 14:02:03;;;;;;;;;;;-0.30;99.90;;;;;;5062623;28;19916;-65
2022/12/17 14:04:29;;;;;;;;;;;-0.50;99.90;;;;;;5062891;28;19978;-66
2022/12/17 14:06:57;;;;;;;;;;;-0.60;99.90;;;;;;5062916;28;19912;-65
2022/12/17 14:09:25;;;;;;;;;;;-0.50;99.90;;;;;;5058963;28;19927;-66
2022/12/17 14:14:37;;;;;;;;;;;-0.70;99.90;;;;;;5059680;28;20402;-64
2022/12/17 14:17:03;;;;;;;;;;;-0.70;99.90;;;;;;5054779;28;19916;-64
2022/12/17 14:19:29;;;;;;;;;;;-0.70;99.90;;;;;;5056343;28;19920;-62
2022/12/17 14:21:55;;;;;;;;;;;-0.80;99.90;;;;;;5056340;28;20309;-64
2022/12/17 14:24:22;;;;;;;;;;;-0.80;99.90;;;;;;5061864;28;20238;-63
2022/12/17 14:26:48;;;;;;;;;;;-0.90;99.90;;;;;;5062819;28;19916;-64
2022/12/17 14:29:14;;;;;;;;;;;-1.00;99.90;;;;;;5060030;28;19924;-65
2022/12/17 14:31:50;;;;;;;;;;;-1.00;99.90;;;;;;5059257;28;19946;-66
2022/12/17 14:34:15;;;;;;;;;;;-0.90;99.90;;;;;;5062118;28;19916;-64
2022/12/17 14:36:43;;;;;;;;;;;-0.80;99.90;;;;;;5054702;28;21358;-64
2022/12/17 14:39:37;;;;;;;;;;;-0.70;99.90;;;;;;5056787;28;19916;-64
2022/12/17 14:42:24;;;;;;;;;;;-0.80;99.90;;;;;;5051361;28;20345;-62
2022/12/17 14:44:50;;;;;;;;;;;-0.80;99.90;;;;;;5060579;28;19931;-63
2022/12/17 14:47:18;;;;;;;;;;;-0.90;99.90;;;;;;5058679;28;19921;-62
2022/12/17 14:50:06;;;;;;;;;;;-1.00;99.90;;;;;;5062494;28;20279;-64
2022/12/17 14:52:34;;;;;;;;;;;-1.10;99.90;;;;;;5059814;28;19916;-64
2022/12/17 14:55:00;;;;;;;;;;;-1.10;99.90;;;;;;5061179;28;20348;-61
2022/12/17 14:57:26;;;;;;;;;;;-1.10;99.90;;;;;;5064295;28;19920;-64
2022/12/17 14:59:51;;;;;;;;;;;-1.10;99.90;;;;;;5068585;28;19913;-65
2022/12/17 15:02:19;;;;;;;;;;;-1.20;99.90;;;;;;5067414;28;20096;-64
2022/12/17 15:04:44;;;;;;;;;;;-1.30;99.90;;;;;;5070672;28;19917;-64
2022/12/17 15:07:16;;;;;;;;;;;-1.20;99.90;;;;;;5065870;28;20389;-63
2022/12/17 15:09:42;;;;;;;;;;;-1.30;99.90;;;;;;5066220;28;19924;-63
2022/12/17 15:12:08;;;;;;;;;;;-1.30;99.90;;;;;;5059355;28;20393;-65
2022/12/17 15:14:33;;;;;;;;;;;-1.30;99.90;;;;;;5066329;28;20005;-65
2022/12/17 15:17:00;;;;;;;;;;;-1.50;99.90;;;;;;5060514;28;19928;-64
2022/12/17 15:19:25;;;;;;;;;;;-1.50;99.90;;;;;;5058163;28;20401;-63
2022/12/17 15:21:51;;;;;;;;;;;-1.50;99.90;;;;;;5059035;28;19912;-64
2022/12/17 15:24:18;;;;;;;;;;;-1.50;99.90;;;;;;5057353;28;19917;-65
2022/12/17 15:26:43;;;;;;;;;;;-1.70;99.90;;;;;;5055224;28;19923;-64
2022/12/17 15:29:09;;;;;;;;;;;-1.70;99.90;;;;;;5055187;28;19916;-66
2022/12/17 15:31:34;;;;;;;;;;;-1.70;99.90;;;;;;5059720;28;19966;-65
2022/12/17 15:34:00;;;;;;;;;;;-1.80;99.90;;;;;;5060064;28;19921;-65
2022/12/17 15:36:25;;;;;;;;;;;-1.90;99.90;;;;;;5062058;28;20453;-63
2022/12/17 15:38:51;;;;;;;;;;;-1.90;99.90;;;;;;5063530;28;19920;-65
2022/12/17 15:44:00;;;;;;;;;;;-2.00;99.90;;;;;;5060345;28;19947;-64
2022/12/17 15:46:28;;;;;;;;;;;-2.10;99.90;;;;;;5060562;28;20370;-64
2022/12/17 15:48:55;;;;;;;;;;;-2.10;99.90;;;;;;5058520;28;21270;-64
2022/12/17 15:51:21;;;;;;;;;;;-2.20;99.90;;;;;;5060871;28;19970;-63
2022/12/17 15:53:47;;;;;;;;;;;-2.20;99.90;;;;;;5057929;28;19974;-64
2022/12/17 15:56:21;;;;;;;;;;;-2.20;99.90;;;;;;5059602;28;20362;-65
2022/12/17 15:58:46;;;;;;;;;;;-2.30;99.90;;;;;;5054725;28;19920;-66
2022/12/17 16:01:12;;;;;;;;;;;-2.20;99.90;;;;;;5052342;28;19939;-61
2022/12/17 16:03:37;;;;;;;;;;;-2.30;99.90;;;;;;5053540;28;19962;-65
2022/12/17 16:06:03;;;;;;;;;;;-2.40;99.90;;;;;;5052565;28;19928;-66
2022/12/17 16:08:28;;;;;;;;;;;-2.40;99.90;;;;;;5052718;28;20316;-63
2022/12/17 16:10:53;;;;;;;;;;;-2.40;99.90;;;;;;5049451;28;19924;-64
2022/12/17 16:13:19;;;;;;;;;;;-2.40;99.90;;;;;;5054531;28;20382;-65
2022/12/17 16:15:44;;;;;;;;;;;-2.50;99.90;;;;;;5053574;28;20012;-65
2022/12/17 16:18:10;;;;;;;;;;;-2.40;99.90;;;;;;5055153;28;19952;-64
2022/12/17 16:20:35;;;;;;;;;;;-2.40;99.90;;;;;;5055962;28;19924;-66
2022/12/17 16:23:01;;;;;;;;;;;-2.40;99.90;;;;;;5057516;28;19949;-64
2022/12/17 16:25:26;;;;;;;;;;;-2.50;99.90;;;;;;5056911;28;20023;-67
2022/12/17 16:27:52;;;;;;;;;;;-2.50;99.90;;;;;;5056508;28;19931;-65
2022/12/17 16:30:17;;;;;;;;;;;-2.60;99.90;;;;;;5057772;28;19979;-65
2022/12/17 16:32:43;;;;;;;;;;;-2.60;99.90;;;;;;5065547;28;19951;-63
2022/12/17 16:35:08;;;;;;;;;;;-2.70;99.90;;;;;;5062517;28;20202;-65
2022/12/17 16:37:34;;;;;;;;;;;-2.70;99.90;;;;;;5059047;28;20336;-65
2022/12/17 16:39:59;;;;;;;;;;;-2.70;99.90;;;;;;5059257;28;20007;-62
2022/12/17 16:42:25;;;;;;;;;;;-2.70;99.90;;;;;;5063098;28;19952;-65
2022/12/17 16:44:50;;;;;;;;;;;-2.70;99.90;;;;;;5064946;28;19955;-64
2022/12/17 16:47:16;;;;;;;;;;;-2.70;99.90;;;;;;5063224;28;19943;-64
2022/12/17 16:49:41;;;;;;;;;;;-2.70;99.90;;;;;;5055778;28;19958;-64
2022/12/17 16:52:07;;;;;;;;;;;-2.80;99.90;;;;;;5057553;28;19960;-65
2022/12/17 16:54:32;;;;;;;;;;;-2.80;99.90;;;;;;5057257;28;19920;-64
2022/12/17 16:57:00;;;;;;;;;;;-2.80;99.90;;;;;;5064002;28;19916;-63
2022/12/17 16:59:25;;;;;;;;;;;-2.80;99.90;;;;;;5061638;28;19921;-65
2022/12/17 17:01:51;;;;;;;;;;;-2.80;99.90;;;;;;5065317;28;20412;-63
2022/12/17 17:04:19;;;;;;;;;;;-2.90;99.90;;;;;;5060906;28;20003;-63
2022/12/17 17:06:46;;;;;;;;;;;-2.80;99.90;;;;;;5061153;28;19919;-64
2022/12/17 17:09:12;;;;;;;;;;;-2.90;99.90;;;;;;5060531;28;19963;-63
2022/12/17 17:11:37;;;;;;;;;;;-2.90;99.90;;;;;;5063184;28;19959;-61
2022/12/17 17:14:05;;;;;;;;;;;-3.00;99.90;;;;;;5061877;28;19921;-61
2022/12/17 17:16:32;;;;;;;;;;;-2.90;99.90;;;;;;5068452;28;19913;-59
2022/12/17 17:18:58;;;;;;;;;;;-3.00;99.90;;;;;;5065736;28;19916;-63
2022/12/17 17:21:26;;;;;;;;;;;-3.00;99.90;;;;;;5069173;28;20290;-64
2022/12/17 17:24:00;;;;;;;;;;;-3.00;99.90;;;;;;5067362;28;19916;-63
2022/12/17 17:26:26;;;;;;;;;;;-3.00;99.90;;;;;;5060790;28;20371;-61
2022/12/17 17:28:51;;;;;;;;;;;-3.00;99.90;;;;;;5061280;28;19920;-63
2022/12/17 17:31:17;;;;;;;;;;;-3.00;99.90;;;;;;5067141;28;19916;-66
2022/12/17 17:33:47;;;;;;;;;;;-3.00;99.90;;;;;;5070760;28;19948;-63
2022/12/17 17:36:14;;;;;;;;;;;-3.10;99.90;;;;;;5065437;28;19913;-63
2022/12/17 17:38:40;;;;;;;;;;;-3.00;99.90;;;;;;5068053;28;19912;-65
2022/12/17 17:41:07;;;;;;;;;;;-3.10;99.90;;;;;;5066302;28;20026;-64
2022/12/17 17:43:33;;;;;;;;;;;-3.10;99.90;;;;;;5067484;28;19971;-65
2022/12/17 17:46:09;;;;;;;;;;;-3.10;99.90;;;;;;5060286;28;20409;-64
2022/12/17 17:48:35;;;;;;;;;;;-3.10;99.90;;;;;;5065593;28;19923;-64
2022/12/17 17:51:05;;;;;;;;;;;-3.20;99.90;;;;;;5069775;28;19921;-64
2022/12/17 17:53:30;;;;;;;;;;;-3.20;99.90;;;;;;5061858;28;20399;-62
2022/12/17 17:56:03;;;;;;;;;;;-3.20;99.90;;;;;;5063269;28;19928;-63
2022/12/17 17:58:28;;;;;;;;;;;-3.10;99.90;;;;;;5062533;28;19959;-60
2022/12/17 18:00:54;;;;;;;;;;;-3.20;99.90;;;;;;5067155;28;19912;-62
2022/12/17 18:03:19;;;;;;;;;;;-3.20;99.90;;;;;;5070643;28;19970;-63
2022/12/17 18:05:44;;;;;;;;;;;-3.30;99.90;;;;;;5057324;28;20561;-63
2022/12/17 18:08:10;;;;;;;;;;;-3.30;99.90;;;;;;5064264;28;20286;-61
2022/12/17 18:10:35;;;;;;;;;;;-3.30;99.90;;;;;;5067231;28;19943;-61
2022/12/17 18:15:45;;;;;;;;;;;-3.30;99.90;;;;;;5065757;28;20012;-61
2022/12/17 18:18:10;;;;;;;;;;;-3.30;99.90;;;;;;5061740;28;20448;-62
2022/12/17 18:20:36;;;;;;;;;;;-3.40;99.90;;;;;;5070340;28;19912;-60
2022/12/17 18:23:01;;;;;;;;;;;-3.50;99.90;;;;;;5067346;28;19913;-64
2022/12/17 18:25:27;;;;;;;;;;;-3.40;99.90;;;;;;5068120;28;19913;-65
2022/12/17 18:27:52;;;;;;;;;;;-3.40;99.90;;;;;;5072252;28;19916;-63
2022/12/17 18:30:18;;;;;;;;;;;-3.60;99.90;;;;;;5072721;28;19912;-64
2022/12/17 18:32:44;;;;;;;;;;;-3.60;99.90;;;;;;5069837;28;19919;-63
2022/12/17 18:35:09;;;;;;;;;;;-3.50;99.90;;;;;;5070226;28;20263;-63
2022/12/17 18:37:35;;;;;;;;;;;-3.50;99.90;;;;;;5072815;28;20055;-62
2022/12/17 18:40:00;;;;;;;;;;;-3.50;99.90;;;;;;5072450;28;19978;-64
2022/12/17 18:45:10;;;;;;;;;;;-3.50;99.90;;;;;;5065719;28;20484;-63
2022/12/17 18:47:35;;;;;;;;;;;-3.50;99.90;;;;;;5070136;28;19948;-62
2022/12/17 18:50:01;;;;;;;;;;;-3.50;99.90;;;;;;5066118;28;19920;-63
2022/12/17 18:52:26;;;;;;;;;;;-3.50;99.90;;;;;;5068381;28;20301;-63
2022/12/17 18:54:52;;;;;;;;;;;-3.50;99.90;;;;;;5069243;28;19991;-62
2022/12/17 18:57:17;;;;;;;;;;;-3.50;99.90;;;;;;5095416;22;20002;-62
2022/12/17 18:59:43;;;;;;;;;;;-3.50;99.90;;;;;;5090689;28;19908;-62
2022/12/17 19:02:08;;;;;;;;;;;;;;;;;;5089521;28;19918;-62
2022/12/17 19:04:34;;;;;;;;;;;;;;;;;;5086073;28;19967;-61
2022/12/17 19:07:00;;;;;;;;;;;;;;;;;;5087993;28;20439;-62
2022/12/17 19:09:27;;;;;;;;;;;;;;;;;;5089539;28;20019;-62
2022/12/17 19:11:52;;;;;;;;;;;;;;;;;;5086804;28;19912;-61
2022/12/17 19:14:20;;;;;;;;;;;;;;;;;;5090286;28;19918;-62
2022/12/17 19:16:46;;;;;;;;;;;-3.60;99.90;;;;;;5090659;28;19935;-61
2022/12/17 19:19:12;;;;;;;;;;;;;;;;;;5089285;28;20389;-62
2022/12/17 19:21:38;;;;;;;;;;;;;;;;;;5087392;28;19915;-61
2022/12/17 19:24:04;;;;;;;;;;;;;;;;;;5090386;28;20284;-61
2022/12/17 19:26:30;;;;;;;;;;;;;;;;;;5090994;28;19915;-62
2022/12/17 19:28:56;;;;;;;;;;;;;;;;;;5084025;28;19958;-62
2022/12/17 19:31:22;;;;;;;;;;;;;;;;;;5087808;28;19912;-62
2022/12/17 19:33:48;;;;;;;;;;;;;;;;;;5086502;28;19912;-62
2022/12/17 19:36:13;;;;;;;;;;;;;;;;;;5089663;28;19908;-63
2022/12/17 19:38:39;;;;;;;;;;;;;;;;;;5090034;28;20300;-62
2022/12/17 19:41:05;;;;;;;;;;;;;;;;;;5087641;28;19916;-62
2022/12/17 19:43:31;;;;;;;;;;;;;;;;;;5083971;28;19913;-62
2022/12/17 19:45:57;;;;;;;;;;;;;;;;;;5090147;28;19916;-62
2022/12/17 19:48:23;;;;;;;;;;;;;;;;;;5085409;28;20353;-62
2022/12/17 19:50:55;;;;;;;;;;;-3.50;99.90;;;;;;5084222;28;19923;-62
2022/12/17 19:53:25;;;;;;;;;;;-3.70;99.90;;;;;;5080864;28;19988;-62
2022/12/17 19:55:51;;;;;;;;;;;-3.70;99.90;;;;;;5071782;28;20372;-62
2022/12/17 19:58:17;;;;;;;;;;;;;;;;;;5084827;28;19920;-62
2022/12/17 20:00:43;;;;;;;;;;;;;;;;;;5084617;28;19938;-62
2022/12/17 20:03:09;;;;;;;;;;;;;;;;;;5081930;28;19989;-62
2022/12/17 20:05:35;;;;;;;;;;;;;;;;;;5088874;28;19916;-61
2022/12/17 20:08:01;;;;;;;;;;;;;;;;;;5085852;28;20297;-63
2022/12/17 20:10:26;;;;;;;;;;;;;;;;;;5091991;28;19916;-63
2022/12/17 20:12:52;;;;;;;;;;;;;;;;;;5086279;28;19912;-63
2022/12/17 20:15:18;;;;;;;;;;;;;;;;;;5088822;28;19919;-63
2022/12/17 20:17:44;;;;;;;;;;;;;;;;;;5091294;28;20370;-62
2022/12/17 20:20:10;;;;;;;;;;;;;;;;;;5094844;28;19915;-63
2022/12/17 20:22:35;;;;;;;;;;;-3.70;99.90;;;;;;5095254;28;19932;-63
2022/12/17 20:25:03;;;;;;;;;;;-3.80;99.90;;;;;;5095722;28;20014;-63
2022/12/17 20:27:29;;;;;;;;;;;-3.90;99.90;;;;;;5090098;28;20025;-62
2022/12/17 20:29:54;;;;;;;;;;;-3.90;99.90;;;;;;5093930;28;20393;-63
2022/12/17 20:32:20;;;;;;;;;;;-3.90;99.90;;;;;;5094310;28;19995;-63
2022/12/17 20:34:45;;;;;;;;;;;-3.90;99.90;;;;;;5094115;28;19908;-63
2022/12/17 20:37:11;;;;;;;;;;;-3.90;99.90;;;;;;5093718;28;20010;-63
2022/12/17 20:39:36;;;;;;;;;;;-3.90;99.90;;;;;;5091636;28;20014;-63
2022/12/17 20:42:02;;;;;;;;;;;-3.90;99.90;;;;;;5089301;28;19909;-63
2022/12/17 20:44:27;;;;;;;;;;;-3.90;99.90;;;;;;5095237;28;20011;-62
2022/12/17 20:46:53;;;;;;;;;;;-3.90;99.90;;;;;;5093819;28;19912;-62
2022/12/17 20:49:19;;;;;;;;;;;-3.90;99.90;;;;;;5094146;28;19912;-62
2022/12/17 20:51:44;;;;;;;;;;;-3.90;99.90;;;;;;5089301;28;19916;-62
2022/12/17 20:54:10;;;;;;;;;;;-3.90;99.90;;;;;;5089218;28;19912;-62
2022/12/17 20:56:35;;;;;;;;;;;-3.90;99.90;;;;;;5093184;28;19923;-62
2022/12/17 20:59:02;;;;;;;;;;;-3.90;99.90;;;;;;5090542;28;19912;-62
2022/12/17 21:01:29;;;;;;;;;;;-3.90;99.90;;;;;;5091415;28;19912;-62
2022/12/17 21:03:54;;;;;;;;;;;-3.90;99.90;;;;;;5092734;28;19919;-62
2022/12/17 21:06:21;;;;;;;;;;;-3.90;99.90;;;;;;5091354;28;19912;-62
2022/12/17 21:08:48;;;;;;;;;;;-3.90;99.90;;;;;;5094843;28;20385;-64
2022/12/17 21:11:24;;;;;;;;;;;-3.90;99.90;;;;;;5094712;28;19923;-62
2022/12/17 21:13:50;;;;;;;;;;;-3.90;99.90;;;;;;5089912;28;19928;-63
2022/12/17 21:16:17;;;;;;;;;;;-3.90;99.90;;;;;;5091916;28;20370;-63
2022/12/17 21:18:42;;;;;;;;;;;-4.00;99.90;;;;;;5089997;28;19912;-63
2022/12/17 21:21:09;;;;;;;;;;;-3.90;99.90;;;;;;5091791;28;19919;-62
2022/12/17 21:23:37;;;;;;;;;;;-3.90;99.90;;;;;;5088099;28;19908;-63
2022/12/17 21:26:04;;;;;;;;;;;-4.00;99.90;;;;;;5094573;28;19947;-64
2022/12/17 21:28:30;;;;;;;;;;;-3.90;99.90;;;;;;5094542;28;19908;-61
2022/12/17 21:30:56;;;;;;;;;;;-3.90;99.90;;;;;;5092472;28;19924;-61
2022/12/17 21:33:21;;;;;;;;;;;-4.00;99.90;;;;;;5090307;28;19963;-64
2022/12/17 21:35:47;;;;;;;;;;;-4.00;99.90;;;;;;5094279;28;19995;-62
2022/12/17 21:38:13;;;;;;;;;;;-4.10;99.90;;;;;;5094608;28;19912;-61
2022/12/17 21:40:39;;;;;;;;;;;-4.00;99.90;;;;;;5094387;28;20357;-62
2022/12/17 21:43:04;;;;;;;;;;;-4.10;99.90;;;;;;5093222;28;19951;-62
2022/12/17 21:45:37;;;;;;;;;;;-4.10;99.90;;;;;;5091478;28;20377;-61
2022/12/17 21:48:03;;;;;;;;;;;-4.10;99.90;;;;;;5089289;28;20384;-62
2022/12/17 21:50:29;;;;;;;;;;;-4.00;99.90;;;;;;5088979;28;19920;-63
2022/12/17 21:52:54;;;;;;;;;;;-4.10;99.90;;;;;;5094174;28;19950;-62
2022/12/17 21:55:20;;;;;;;;;;;-4.10;99.90;;;;;;5093066;28;19957;-62
2022/12/17 21:57:45;;;;;;;;;;;-4.10;99.90;;;;;;5090304;28;20266;-62
2022/12/17 22:00:11;;;;;;;;;;;-4.00;99.90;;;;;;5094212;28;19908;-62
2022/12/17 22:02:36;;;;;;;;;;;-4.10;99.90;;;;;;5087079;28;19912;-61
2022/12/17 22:05:02;;;;;;;;;;;-4.10;99.90;;;;;;5093125;28;20403;-62
2022/12/17 22:07:28;;;;;;;;;;;-4.20;99.90;;;;;;5093980;28;19908;-61
2022/12/17 22:09:53;;;;;;;;;;;-4.30;99.90;;;;;;5094194;28;19919;-65
2022/12/17 22:15:03;;;;;;;;;;;-4.20;99.90;;;;;;5082831;28;20039;-63
2022/12/17 22:17:29;;;;;;;;;;;-4.20;99.90;;;;;;5089200;28;20363;-63
2022/12/17 22:19:54;;;;;;;;;;;-4.30;99.90;;;;;;5093014;28;20459;-61
2022/12/17 22:22:20;;;;;;;;;;;-4.40;99.90;;;;;;5091201;28;19919;-64
2022/12/17 22:24:45;;;;;;;;;;;-4.60;99.90;;;;;;5090999;28;19914;-61
2022/12/17 22:27:11;;;;;;;;;;;-4.60;99.90;;;;;;5091239;28;19908;-63
2022/12/17 22:35:05;;;;;;;;;;;-4.40;99.90;;;;;;5083631;28;19914;-62
2022/12/17 22:37:30;;;;;;;;;;;-4.40;99.90;;;;;;5092493;28;19913;-63
2022/12/17 22:39:56;;;;;;;;;;;-4.40;99.90;;;;;;5088432;28;20404;-63
2022/12/17 22:45:06;;;;;;;;;;;-4.30;99.90;;;;;;5085560;28;19920;-62
2022/12/17 22:47:31;;;;;;;;;;;-4.30;99.90;;;;;;5089445;28;20294;-61
2022/12/17 22:49:57;;;;;;;;;;;-4.30;99.90;;;;;;5087417;28;19916;-63
2022/12/17 22:52:22;;;;;;;;;;;-4.40;99.90;;;;;;5090983;28;19918;-62
2022/12/17 22:54:47;;;;;;;;;;;-4.30;99.90;;;;;;5089314;28;20397;-62
2022/12/17 22:57:13;;;;;;;;;;;-4.30;99.90;;;;;;5091600;28;19977;-63
2022/12/17 22:59:38;;;;;;;;;;;-4.30;99.90;;;;;;5092791;28;19908;-63
2022/12/17 23:02:04;;;;;;;;;;;-4.30;99.90;;;;;;5090324;28;19924;-62
2022/12/17 23:04:29;;;;;;;;;;;-4.30;99.90;;;;;;5088910;28;19938;-62
2022/12/17 23:06:55;;;;;;;;;;;-4.20;99.90;;;;;;5092147;28;19912;-63
2022/12/17 23:09:20;;;;;;;;;;;-4.20;99.90;;;;;;5092343;28;19908;-63
2022/12/17 23:11:47;;;;;;;;;;;-4.20;99.90;;;;;;5088574;28;19923;-61
2022/12/17 23:14:12;;;;;;;;;;;-4.10;99.90;;;;;;5089925;28;19908;-63
2022/12/17 23:16:38;;;;;;;;;;;-4.20;99.90;;;;;;5090887;28;19915;-63
2022/12/17 23:19:04;;;;;;;;;;;-4.20;99.90;;;;;;5089640;28;20390;-63
2022/12/17 23:21:30;;;;;;;;;;;-4.10;99.90;;;;;;5092132;28;19916;-62
2022/12/17 23:23:55;;;;;;;;;;;-4.10;99.90;;;;;;5089184;28;19918;-64
2022/12/17 23:26:25;;;;;;;;;;;-4.10;99.90;;;;;;5072879;28;20369;-63
2022/12/17 23:28:52;;;;;;;;;;;-4.10;99.90;;;;;;5092214;28;19916;-63
2022/12/17 23:31:19;;;;;;;;;;;-4.20;99.90;;;;;;5092029;28;19912;-63
2022/12/17 23:33:45;;;;;;;;;;;-4.10;99.90;;;;;;5087067;28;19908;-63
2022/12/17 23:36:12;;;;;;;;;;;-4.10;99.90;;;;;;5092087;28;19916;-62
2022/12/17 23:38:37;;;;;;;;;;;-4.10;99.90;;;;;;5091334;28;20368;-62
2022/12/17 23:41:04;;;;;;;;;;;-4.10;99.90;;;;;;5092001;28;19908;-62
2022/12/17 23:43:29;;;;;;;;;;;-4.10;99.90;;;;;;5088213;28;19916;-63
2022/12/17 23:45:55;;;;;;;;;;;-4.20;99.90;;;;;;5091994;28;19915;-62
2022/12/17 23:48:20;;;;;;;;;;;-4.20;99.90;;;;;;5090678;28;19913;-62
2022/12/17 23:50:46;;;;;;;;;;;-4.20;99.90;;;;;;5085330;28;19912;-63
2022/12/17 23:53:11;;;;;;;;;;;-4.30;99.90;;;;;;5090921;28;19912;-62
2022/12/17 23:55:37;;;;;;;;;;;-4.30;99.90;;;;;;5086141;28;19912;-62
2022/12/17 23:58:02;;;;;;;;;;;-4.30;99.90;;;;;;5088482;28;19912;-61
